createdAt,value
2022-12-31T00:01:06.724Z,69.51
2022-12-31T00:03:33.888Z,69.59
2022-12-31T00:06:00.461Z,69.91
2022-12-31T00:08:26.934Z,68.48
2022-12-31T00:10:53.445Z,69.53
2022-12-31T00:13:20.053Z,68.38
2022-12-31T00:15:46.692Z,69.28
2022-12-31T00:18:13.192Z,69.65
2022-12-31T00:20:41.860Z,69.40
2022-12-31T00:23:10.192Z,70.12
2022-12-31T00:25:36.721Z,69.07
2022-12-31T00:28:05.005Z,69.11
2022-12-31T00:30:31.778Z,68.14
2022-12-31T00:32:58.312Z,68.64
2022-12-31T00:35:24.991Z,70.04
2022-12-31T00:37:53.228Z,67.95
2022-12-31T00:40:19.758Z,66.71
2022-12-31T00:42:46.301Z,67.38
2022-12-31T00:45:12.692Z,68.29
2022-12-31T00:47:39.216Z,68.80
2022-12-31T00:50:06.225Z,68.01
2022-12-31T00:52:32.658Z,68.62
2022-12-31T00:54:59.238Z,70.21
2022-12-31T00:57:25.627Z,69.71
2022-12-31T00:59:52.259Z,68.17
2022-12-31T01:02:18.778Z,68.51
2022-12-31T01:04:45.370Z,69.34
2022-12-31T01:07:11.874Z,69.13
2022-12-31T01:09:38.291Z,69.72
2022-12-31T01:12:07.146Z,69.68
2022-12-31T01:14:33.914Z,69.46
2022-12-31T01:17:00.385Z,67.44
2022-12-31T01:19:29.273Z,67.47
2022-12-31T01:21:56.302Z,69.57
2022-12-31T01:24:22.832Z,69.85
2022-12-31T01:26:49.438Z,70.55
2022-12-31T01:29:17.002Z,69.20
2022-12-31T01:31:43.620Z,69.67
2022-12-31T01:34:10.121Z,69.20
2022-12-31T01:36:38.024Z,70.21
2022-12-31T01:39:06.430Z,70.62
2022-12-31T01:41:39.037Z,70.77
2022-12-31T01:44:11.227Z,70.46
2022-12-31T01:46:42.477Z,68.72
2022-12-31T01:49:29.882Z,69.35
2022-12-31T01:52:06.986Z,68.49
2022-12-31T01:54:38.100Z,68.93
2022-12-31T01:57:05.321Z,68.53
2022-12-31T01:59:33.098Z,68.53
2022-12-31T02:02:00.090Z,68.55
2022-12-31T02:04:28.166Z,67.73
2022-12-31T02:07:00.334Z,66.71
2022-12-31T02:09:26.892Z,66.91
2022-12-31T02:11:53.557Z,67.32
2022-12-31T02:14:28.412Z,67.01
2022-12-31T02:17:07.443Z,66.10
2022-12-31T02:19:54.679Z,65.55
2022-12-31T02:22:45.971Z,64.90
2022-12-31T02:25:39.601Z,64.29
2022-12-31T02:28:21.575Z,64.21
2022-12-31T02:30:52.605Z,64.39
2022-12-31T02:33:32.896Z,64.15
2022-12-31T02:36:20.478Z,65.02
2022-12-31T02:38:49.358Z,64.53
2022-12-31T02:41:36.886Z,63.71
2022-12-31T02:44:24.364Z,62.26
2022-12-31T02:47:08.841Z,63.44
2022-12-31T02:49:53.739Z,62.70
2022-12-31T02:52:38.908Z,62.92
2022-12-31T02:55:44.379Z,62.97
2022-12-31T02:59:06.478Z,62.56
2022-12-31T03:01:56.094Z,63.41
2022-12-31T03:04:34.037Z,62.33
2022-12-31T03:07:06.760Z,63.68
2022-12-31T03:09:34.644Z,62.61
2022-12-31T03:12:20.764Z,63.08
2022-12-31T03:14:47.361Z,61.46
2022-12-31T03:17:13.842Z,61.07
2022-12-31T03:19:58.925Z,59.70
2022-12-31T03:22:28.184Z,59.22
2022-12-31T03:25:18.307Z,59.08
2022-12-31T03:27:46.539Z,58.69
2022-12-31T03:30:14.877Z,59.75
2022-12-31T03:32:42.190Z,59.64
2022-12-31T03:35:09.931Z,58.74
2022-12-31T03:37:36.428Z,58.61
2022-12-31T03:40:02.903Z,58.34
2022-12-31T03:42:29.489Z,59.12
2022-12-31T03:44:56.077Z,58.65
2022-12-31T03:47:22.559Z,58.41
2022-12-31T03:49:49.012Z,59.97
2022-12-31T03:52:15.438Z,59.04
2022-12-31T03:54:41.863Z,59.13
2022-12-31T03:57:08.488Z,59.96
2022-12-31T03:59:35.083Z,59.73
2022-12-31T04:02:01.751Z,59.93
2022-12-31T04:04:28.371Z,59.23
2022-12-31T04:06:54.830Z,59.25
2022-12-31T04:09:21.380Z,59.30
2022-12-31T04:11:47.907Z,59.22
2022-12-31T04:14:14.729Z,59.19
2022-12-31T04:16:41.353Z,58.80
2022-12-31T04:19:07.820Z,58.96
2022-12-31T04:21:35.289Z,58.45
2022-12-31T04:24:02.660Z,59.34
2022-12-31T04:26:30.200Z,59.84
2022-12-31T04:28:56.692Z,59.79
2022-12-31T04:31:23.235Z,59.55
2022-12-31T04:33:49.727Z,60.62
2022-12-31T04:36:16.400Z,61.12
2022-12-31T04:38:42.829Z,62.74
2022-12-31T04:41:19.197Z,62.92
2022-12-31T04:43:51.111Z,61.70
2022-12-31T04:46:19.849Z,62.21
2022-12-31T04:48:46.690Z,62.37
2022-12-31T04:51:13.652Z,62.79
2022-12-31T04:53:40.600Z,64.71
2022-12-31T04:56:07.323Z,63.87
2022-12-31T04:58:34.744Z,64.61
2022-12-31T05:01:01.400Z,64.98
2022-12-31T05:03:28.412Z,64.58
2022-12-31T05:06:01.149Z,65.68
2022-12-31T05:08:27.681Z,67.03
2022-12-31T05:10:54.200Z,65.45
2022-12-31T05:13:20.853Z,66.95
2022-12-31T05:15:47.625Z,69.08
2022-12-31T05:18:14.213Z,67.25
2022-12-31T05:20:40.965Z,67.33
2022-12-31T05:23:07.852Z,66.57
2022-12-31T05:25:34.931Z,67.10
2022-12-31T05:28:01.615Z,67.41
2022-12-31T05:30:28.122Z,68.03
2022-12-31T05:32:54.879Z,67.81
2022-12-31T05:35:21.406Z,69.08
2022-12-31T05:37:47.937Z,67.67
2022-12-31T05:40:14.408Z,68.18
2022-12-31T05:42:40.798Z,67.13
2022-12-31T05:45:07.899Z,67.39
2022-12-31T05:47:34.342Z,67.25
2022-12-31T05:50:00.841Z,65.36
2022-12-31T05:52:27.293Z,66.50
2022-12-31T05:54:53.815Z,66.71
2022-12-31T05:57:20.232Z,66.53
2022-12-31T05:59:46.694Z,66.89
2022-12-31T06:02:13.222Z,66.69
2022-12-31T06:04:39.912Z,66.20
2022-12-31T06:07:06.598Z,65.67
2022-12-31T06:09:33.033Z,66.10
2022-12-31T06:11:59.433Z,65.43
2022-12-31T06:14:26.003Z,64.14
2022-12-31T06:16:52.387Z,64.66
2022-12-31T06:19:18.857Z,65.37
2022-12-31T06:21:45.382Z,65.29
2022-12-31T06:24:12.394Z,63.61
2022-12-31T06:26:38.962Z,64.67
2022-12-31T06:29:05.406Z,65.35
2022-12-31T06:31:32.263Z,64.54
2022-12-31T06:33:59.069Z,63.29
2022-12-31T06:36:27.047Z,62.97
2022-12-31T06:38:53.870Z,64.13
2022-12-31T06:41:20.655Z,65.37
2022-12-31T06:43:47.499Z,66.27
2022-12-31T06:46:16.998Z,66.41
2022-12-31T06:48:44.928Z,65.53
2022-12-31T06:51:19.757Z,64.70
2022-12-31T06:53:48.106Z,64.98
2022-12-31T06:56:19.361Z,65.03
2022-12-31T06:58:46.318Z,64.07
2022-12-31T07:01:44.456Z,64.70
2022-12-31T07:04:34.984Z,62.75
2022-12-31T07:07:27.033Z,62.57
2022-12-31T07:10:30.929Z,63.95
2022-12-31T07:13:30.114Z,63.08
2022-12-31T07:16:11.174Z,61.63
2022-12-31T07:18:50.296Z,61.34
2022-12-31T07:21:23.979Z,61.11
2022-12-31T07:23:50.672Z,60.27
2022-12-31T07:27:11.280Z,59.86
2022-12-31T07:30:00.959Z,59.49
2022-12-31T07:32:36.966Z,59.62
2022-12-31T07:35:35.301Z,58.92
2022-12-31T07:38:32.732Z,58.82
2022-12-31T07:41:10.054Z,58.89
2022-12-31T07:44:07.721Z,60.10
2022-12-31T07:46:40.110Z,61.59
2022-12-31T07:49:12.209Z,61.29
2022-12-31T07:51:39.460Z,60.14
2022-12-31T07:54:11.814Z,60.07
2022-12-31T07:56:40.591Z,59.91
2022-12-31T07:59:29.528Z,60.68
2022-12-31T08:02:14.850Z,59.76
2022-12-31T08:04:49.576Z,58.18
2022-12-31T08:07:22.332Z,56.51
2022-12-31T08:10:03.531Z,53.98
2022-12-31T08:12:34.937Z,53.36
2022-12-31T08:15:02.015Z,53.10
2022-12-31T08:17:28.644Z,51.91
2022-12-31T08:19:55.295Z,52.31
2022-12-31T08:22:40.281Z,51.31
2022-12-31T08:25:52.424Z,53.57
2022-12-31T08:28:52.668Z,54.47
2022-12-31T08:31:23.452Z,53.42
2022-12-31T08:34:17.747Z,53.22
2022-12-31T08:37:08.645Z,52.90
2022-12-31T08:40:13.069Z,52.76
2022-12-31T08:43:04.367Z,53.73
2022-12-31T08:46:00.711Z,51.73
2022-12-31T08:48:38.599Z,50.83
2022-12-31T08:51:05.812Z,51.08
2022-12-31T08:53:32.612Z,51.33
2022-12-31T08:56:07.974Z,52.43
2022-12-31T08:59:03.977Z,53.39
2022-12-31T09:01:46.291Z,54.91
2022-12-31T09:04:30.074Z,54.15
2022-12-31T09:07:01.078Z,56.02
2022-12-31T09:09:40.778Z,56.88
2022-12-31T09:12:28.538Z,58.38
2022-12-31T09:14:59.388Z,56.48
2022-12-31T09:17:44.368Z,55.30
2022-12-31T09:20:41.795Z,53.78
2022-12-31T09:23:10.233Z,53.35
2022-12-31T09:25:46.325Z,51.86
2022-12-31T09:28:36.717Z,50.22
2022-12-31T09:31:11.306Z,48.20
2022-12-31T09:33:58.595Z,52.84
2022-12-31T09:36:38.969Z,48.98
2022-12-31T09:39:22.580Z,47.02
2022-12-31T09:41:55.119Z,46.15
2022-12-31T09:44:30.573Z,45.71
2022-12-31T09:47:27.964Z,42.51
2022-12-31T09:50:25.327Z,43.25
2022-12-31T09:53:21.605Z,43.25
2022-12-31T09:56:12.383Z,42.54
2022-12-31T09:58:57.402Z,42.84
2022-12-31T10:01:37.425Z,45.74
2022-12-31T10:04:15.569Z,43.63
2022-12-31T10:07:06.059Z,46.96
2022-12-31T10:10:07.647Z,46.84
2022-12-31T10:12:52.834Z,48.97
2022-12-31T10:15:43.564Z,49.68
2022-12-31T10:18:37.956Z,51.30
2022-12-31T10:21:32.580Z,49.41
2022-12-31T10:24:04.401Z,47.32
2022-12-31T10:27:09.415Z,50.19
2022-12-31T10:29:47.254Z,50.50
2022-12-31T10:32:18.781Z,51.46
2022-12-31T10:34:56.309Z,51.14
2022-12-31T10:37:43.400Z,52.43
2022-12-31T10:40:20.355Z,49.61
2022-12-31T10:43:27.606Z,50.19
2022-12-31T10:46:16.231Z,48.99
2022-12-31T10:48:54.334Z,50.15
2022-12-31T10:51:45.378Z,49.45
2022-12-31T10:55:03.249Z,48.32
2022-12-31T10:57:39.727Z,49.57
2022-12-31T11:00:15.292Z,48.21
2022-12-31T11:03:23.517Z,49.76
2022-12-31T11:06:22.777Z,48.02
2022-12-31T11:09:18.613Z,50.45
2022-12-31T11:12:00.092Z,48.43
2022-12-31T11:14:45.292Z,48.57
2022-12-31T11:17:31.198Z,47.42
2022-12-31T11:20:01.946Z,48.39
2022-12-31T11:22:39.793Z,46.51
2022-12-31T11:25:12.753Z,45.58
2022-12-31T11:27:57.315Z,44.60
2022-12-31T11:30:41.722Z,45.01
2022-12-31T11:33:35.272Z,47.55
2022-12-31T11:36:22.853Z,46.07
2022-12-31T11:39:01.890Z,46.73
2022-12-31T11:41:39.689Z,46.71
2022-12-31T11:44:23.853Z,46.17
2022-12-31T11:47:12.308Z,44.92
2022-12-31T11:49:53.765Z,44.13
2022-12-31T11:52:33.280Z,44.94
2022-12-31T11:55:18.074Z,45.06
2022-12-31T11:57:50.560Z,44.32
2022-12-31T12:00:22.124Z,45.01
2022-12-31T12:02:54.820Z,44.49
2022-12-31T12:05:26.062Z,43.17
2022-12-31T12:07:53.655Z,42.58
2022-12-31T12:10:35.674Z,43.06
2022-12-31T12:13:21.281Z,43.22
2022-12-31T12:15:51.305Z,43.40
2022-12-31T12:18:43.943Z,43.37
2022-12-31T12:21:25.164Z,42.76
2022-12-31T12:23:58.531Z,43.54
2022-12-31T12:26:29.789Z,44.13
2022-12-31T12:29:00.254Z,45.54
2022-12-31T12:31:27.507Z,46.90
2022-12-31T12:33:54.066Z,46.18
2022-12-31T12:36:21.745Z,46.29
2022-12-31T12:38:48.294Z,45.94
2022-12-31T12:41:25.373Z,46.47
2022-12-31T12:44:14.284Z,46.31
2022-12-31T12:46:48.402Z,44.75
2022-12-31T12:49:29.314Z,44.50
2022-12-31T12:52:01.737Z,43.90
2022-12-31T12:54:47.022Z,43.62
2022-12-31T12:57:24.389Z,43.67
2022-12-31T13:00:13.002Z,43.41
2022-12-31T13:03:11.740Z,44.30
2022-12-31T13:06:10.044Z,44.11
2022-12-31T13:08:56.909Z,44.04
2022-12-31T13:11:41.812Z,43.92
2022-12-31T13:14:39.469Z,43.65
2022-12-31T13:17:34.937Z,44.24
2022-12-31T13:20:24.443Z,46.13
2022-12-31T13:23:15.411Z,44.73
2022-12-31T13:26:17.033Z,46.37
2022-12-31T13:28:47.075Z,45.68
2022-12-31T13:31:17.374Z,45.47
2022-12-31T13:33:53.730Z,46.17
2022-12-31T13:36:23.619Z,45.20
2022-12-31T13:38:56.557Z,44.61
2022-12-31T13:41:28.967Z,45.08
2022-12-31T13:44:06.772Z,44.29
2022-12-31T13:46:56.119Z,45.12
2022-12-31T13:49:32.572Z,45.01
2022-12-31T13:52:07.072Z,45.52
2022-12-31T13:54:52.718Z,46.47
2022-12-31T13:57:26.950Z,46.46
2022-12-31T13:59:59.284Z,45.97
2022-12-31T14:02:29.085Z,47.36
2022-12-31T14:05:16.671Z,46.03
2022-12-31T14:07:49.855Z,47.26
2022-12-31T14:10:19.364Z,47.94
2022-12-31T14:13:05.554Z,47.73
2022-12-31T14:15:36.969Z,48.09
2022-12-31T14:18:11.560Z,47.49
2022-12-31T14:21:03.671Z,48.25
2022-12-31T14:23:42.226Z,48.04
2022-12-31T14:26:41.793Z,49.11
2022-12-31T14:29:11.266Z,48.89
2022-12-31T14:31:50.083Z,49.68
2022-12-31T14:34:28.687Z,50.17
2022-12-31T14:37:13.756Z,50.04
2022-12-31T14:40:00.802Z,50.97
2022-12-31T14:42:40.371Z,51.23
2022-12-31T14:45:22.119Z,51.38
2022-12-31T14:48:49.926Z,51.52
2022-12-31T14:51:16.805Z,51.87
2022-12-31T14:53:52.737Z,52.16
2022-12-31T14:56:33.318Z,51.21
2022-12-31T14:59:02.333Z,52.18
2022-12-31T15:01:29.320Z,53.02
2022-12-31T15:03:58.049Z,53.20
2022-12-31T15:06:24.556Z,52.57
2022-12-31T15:09:19.633Z,52.50
2022-12-31T15:12:06.345Z,52.75
2022-12-31T15:14:45.104Z,53.31
2022-12-31T15:17:17.135Z,54.79
2022-12-31T15:19:46.408Z,54.40
2022-12-31T15:22:28.299Z,53.68
2022-12-31T15:24:55.292Z,52.88
2022-12-31T15:27:30.807Z,54.18
2022-12-31T15:29:57.465Z,53.66
2022-12-31T15:32:35.700Z,54.06
2022-12-31T15:35:20.788Z,54.16
2022-12-31T15:38:02.351Z,53.75
2022-12-31T15:40:29.678Z,53.29
2022-12-31T15:43:12.836Z,53.12
2022-12-31T15:45:42.067Z,52.95
2022-12-31T15:48:17.446Z,53.09
2022-12-31T15:50:44.787Z,52.43
2022-12-31T15:53:27.541Z,52.97
2022-12-31T15:55:56.338Z,53.22
2022-12-31T15:58:25.679Z,53.36
2022-12-31T16:00:57.260Z,53.30
2022-12-31T16:03:27.215Z,52.62
2022-12-31T16:06:00.037Z,53.14
2022-12-31T16:08:31.501Z,53.46
2022-12-31T16:10:59.246Z,53.16
2022-12-31T16:13:27.772Z,52.53
2022-12-31T16:16:04.917Z,52.77
2022-12-31T16:18:43.294Z,52.82
2022-12-31T16:21:32.649Z,53.23
2022-12-31T16:24:02.972Z,52.96
2022-12-31T16:26:49.949Z,53.03
2022-12-31T16:29:18.686Z,53.70
2022-12-31T16:31:46.639Z,54.25
2022-12-31T16:34:39.414Z,54.78
2022-12-31T16:37:13.723Z,54.86
2022-12-31T16:40:00.003Z,54.33
2022-12-31T16:42:28.324Z,54.58
2022-12-31T16:44:57.007Z,54.85
2022-12-31T16:47:28.289Z,54.23
2022-12-31T16:50:04.078Z,55.01
2022-12-31T16:52:43.377Z,54.62
2022-12-31T16:55:15.473Z,55.25
2022-12-31T16:57:45.890Z,55.52
2022-12-31T17:00:18.073Z,55.63
2022-12-31T17:03:10.373Z,56.32
2022-12-31T17:06:16.424Z,55.84
2022-12-31T17:09:02.399Z,55.88
2022-12-31T17:11:35.462Z,55.93
2022-12-31T17:14:13.843Z,57.13
2022-12-31T17:17:02.689Z,57.33
2022-12-31T17:19:38.820Z,57.04
2022-12-31T17:22:11.596Z,56.74
2022-12-31T17:24:39.055Z,57.67
2022-12-31T17:27:07.207Z,57.44
2022-12-31T17:29:34.431Z,57.28
2022-12-31T17:32:08.409Z,57.51
2022-12-31T17:34:40.039Z,56.02
2022-12-31T17:37:13.016Z,56.40
2022-12-31T17:39:49.476Z,56.80
2022-12-31T17:42:25.445Z,55.97
2022-12-31T17:44:55.969Z,55.54
2022-12-31T17:47:22.615Z,55.68
2022-12-31T17:49:49.211Z,54.93
2022-12-31T17:52:16.076Z,55.04
2022-12-31T17:54:43.135Z,54.77
2022-12-31T17:57:23.625Z,57.48
2022-12-31T17:59:50.180Z,58.25
2022-12-31T18:02:16.734Z,58.61
2022-12-31T18:04:43.358Z,57.80
2022-12-31T18:07:09.787Z,57.91
2022-12-31T18:09:36.201Z,58.21
2022-12-31T18:12:05.757Z,57.45
2022-12-31T18:14:32.216Z,58.03
2022-12-31T18:16:58.713Z,57.52
2022-12-31T18:19:54.256Z,57.94
2022-12-31T18:22:16.173Z,57.41
2022-12-31T18:24:43.561Z,58.05
2022-12-31T18:27:17.892Z,58.07
2022-12-31T18:29:44.912Z,58.37
2022-12-31T18:32:21.175Z,59.10
2022-12-31T18:34:47.905Z,58.70
2022-12-31T18:37:21.322Z,58.68
2022-12-31T18:39:48.405Z,58.63
2022-12-31T18:42:17.324Z,58.64
2022-12-31T18:44:45.092Z,58.18
2022-12-31T18:47:15.937Z,59.22
2022-12-31T18:49:42.988Z,60.33
2022-12-31T18:52:13.773Z,58.93
2022-12-31T18:54:40.334Z,58.65
2022-12-31T18:57:06.957Z,58.58
2022-12-31T18:59:33.409Z,58.62
2022-12-31T19:02:00.002Z,58.33
2022-12-31T19:04:28.304Z,58.47
2022-12-31T19:06:55.953Z,58.32
2022-12-31T19:09:44.719Z,59.00
2022-12-31T19:12:13.407Z,59.12
2022-12-31T19:14:40.004Z,59.33
2022-12-31T19:19:31.760Z,59.76
2022-12-31T19:21:58.210Z,59.61
2022-12-31T19:24:27.336Z,59.59
2022-12-31T19:26:54.837Z,59.95
2022-12-31T19:29:27.611Z,60.22
2022-12-31T19:31:54.503Z,60.56
2022-12-31T19:34:21.118Z,60.99
2022-12-31T19:36:47.605Z,61.43
2022-12-31T19:39:19.675Z,61.58
2022-12-31T19:41:51.419Z,61.36
2022-12-31T19:44:22.874Z,60.63
2022-12-31T19:46:49.450Z,60.95
2022-12-31T19:49:16.510Z,60.57
2022-12-31T19:51:43.226Z,60.28
2022-12-31T19:54:12.944Z,60.50
2022-12-31T19:56:39.424Z,60.82
2022-12-31T19:59:07.577Z,61.12
2022-12-31T20:01:34.375Z,61.38
2022-12-31T20:04:01.008Z,61.88
2022-12-31T20:06:27.522Z,61.18
2022-12-31T20:08:53.960Z,60.80
2022-12-31T20:11:22.310Z,60.92
2022-12-31T20:13:49.944Z,60.36
2022-12-31T20:16:18.444Z,62.07
2022-12-31T20:18:46.693Z,62.89
2022-12-31T20:21:20.009Z,63.17
2022-12-31T20:23:48.182Z,63.24
2022-12-31T20:26:14.687Z,63.38
2022-12-31T20:28:41.379Z,63.42
2022-12-31T20:31:09.373Z,62.78
2022-12-31T20:33:36.338Z,63.18
2022-12-31T20:36:04.911Z,63.36
2022-12-31T20:38:31.550Z,63.83
2022-12-31T20:41:11.817Z,63.22
2022-12-31T20:43:38.797Z,63.43
2022-12-31T20:46:14.396Z,63.74
2022-12-31T20:48:41.879Z,64.39
2022-12-31T20:51:08.434Z,64.80
2022-12-31T20:53:34.982Z,64.65
2022-12-31T20:56:05.634Z,65.37
2022-12-31T20:58:32.239Z,65.25
2022-12-31T21:01:00.172Z,65.22
2022-12-31T21:04:02.929Z,64.67
2022-12-31T21:06:14.377Z,65.04
2022-12-31T21:08:41.409Z,65.41
2022-12-31T21:11:27.020Z,66.21
2022-12-31T21:13:54.929Z,65.34
2022-12-31T21:16:21.389Z,66.26
2022-12-31T21:18:47.888Z,66.81
2022-12-31T21:21:14.496Z,66.88
2022-12-31T21:23:41.039Z,67.16
2022-12-31T21:26:07.700Z,67.12
2022-12-31T21:28:34.492Z,67.47
2022-12-31T21:31:03.727Z,68.08
2022-12-31T21:33:30.773Z,68.99
2022-12-31T21:36:02.632Z,68.32
2022-12-31T21:38:30.945Z,68.53
2022-12-31T21:41:02.750Z,69.10
2022-12-31T21:43:29.169Z,69.66
2022-12-31T21:46:07.120Z,69.92
2022-12-31T21:48:34.748Z,69.53
2022-12-31T21:51:15.137Z,69.11
2022-12-31T21:53:41.517Z,69.22
2022-12-31T21:56:09.903Z,68.88
2022-12-31T21:58:39.038Z,69.20
2022-12-31T22:01:25.093Z,69.33
2022-12-31T22:03:51.777Z,69.07
2022-12-31T22:06:21.232Z,68.32
2022-12-31T22:08:53.445Z,67.72
2022-12-31T22:11:22.546Z,68.04
2022-12-31T22:13:49.809Z,68.70
2022-12-31T22:16:17.256Z,68.28
2022-12-31T22:18:44.223Z,68.09
2022-12-31T22:21:19.981Z,68.54
2022-12-31T22:23:49.166Z,68.69
2022-12-31T22:26:17.752Z,69.39
2022-12-31T22:28:45.846Z,70.75
2022-12-31T22:31:21.686Z,70.77
2022-12-31T22:33:48.302Z,71.50
2022-12-31T22:36:20.121Z,71.33
2022-12-31T22:38:47.324Z,70.00
2022-12-31T22:41:19.697Z,70.49
2022-12-31T22:43:49.364Z,70.68
2022-12-31T22:46:18.462Z,70.19
2022-12-31T22:48:45.394Z,70.60
2022-12-31T22:51:12.758Z,70.26
2022-12-31T22:53:41.090Z,70.12
2022-12-31T22:56:08.481Z,69.60
2022-12-31T22:58:34.966Z,70.61
2022-12-31T23:01:06.088Z,69.82
2022-12-31T23:03:32.800Z,69.66
2022-12-31T23:05:59.785Z,70.86
2022-12-31T23:08:26.446Z,71.25
2022-12-31T23:11:00.313Z,70.78
2022-12-31T23:13:50.855Z,69.97
2022-12-31T23:16:36.952Z,70.26
2022-12-31T23:19:22.312Z,70.50
2022-12-31T23:22:07.273Z,70.33
2022-12-31T23:24:33.832Z,70.45
2022-12-31T23:27:00.464Z,70.81
2022-12-31T23:29:26.951Z,70.72
2022-12-31T23:31:53.661Z,70.88
2022-12-31T23:34:20.270Z,71.30
2022-12-31T23:36:46.748Z,71.32
2022-12-31T23:39:13.530Z,71.20
2022-12-31T23:41:40.500Z,70.36
2022-12-31T23:44:07.531Z,70.63
2022-12-31T23:46:34.066Z,70.03
2022-12-31T23:49:00.549Z,70.34
2022-12-31T23:51:27.136Z,71.11
2022-12-31T23:53:53.637Z,70.43
2022-12-31T23:56:23.987Z,70.22
2022-12-31T23:58:55.269Z,70.57
